sensor_id;sensor_type;location;lat;lon;timestamp;temperature;humidity
53876;DHT22;39789;53.216;5.624;2023-04-06T00:01:30;2.60;99.90
53876;DHT22;39789;53.216;5.624;2023-04-06T00:03:56;2.70;99.90
53876;DHT22;39789;53.216;5.624;2023-04-06T00:06:21;2.80;99.90
53876;DHT22;39789;53.216;5.624;2023-04-06T00:08:47;2.80;99.90
53876;DHT22;39789;53.216;5.624;2023-04-06T00:11:14;2.90;99.90
53876;DHT22;39789;53.216;5.624;2023-04-06T00:13:39;2.90;99.90
53876;DHT22;39789;53.216;5.624;2023-04-06T00:16:05;3.00;99.90
53876;DHT22;39789;53.216;5.624;2023-04-06T00:18:31;3.10;99.90
53876;DHT22;39789;53.216;5.624;2023-04-06T00:20:57;3.00;99.90
53876;DHT22;39789;53.216;5.624;2023-04-06T00:23:23;3.00;99.90
53876;DHT22;39789;53.216;5.624;2023-04-06T00:25:48;3.00;99.90
53876;DHT22;39789;53.216;5.624;2023-04-06T00:28:14;2.90;99.90
53876;DHT22;39789;53.216;5.624;2023-04-06T00:30:40;2.90;99.90
53876;DHT22;39789;53.216;5.624;2023-04-06T00:33:06;2.80;99.90
53876;DHT22;39789;53.216;5.624;2023-04-06T00:35:35;2.80;99.90
53876;DHT22;39789;53.216;5.624;2023-04-06T00:38:00;2.70;99.90
53876;DHT22;39789;53.216;5.624;2023-04-06T00:40:26;2.70;99.90
53876;DHT22;39789;53.216;5.624;2023-04-06T00:42:54;2.60;99.90
53876;DHT22;39789;53.216;5.624;2023-04-06T00:45:20;2.60;99.90
53876;DHT22;39789;53.216;5.624;2023-04-06T00:47:45;2.50;99.90
53876;DHT22;39789;53.216;5.624;2023-04-06T00:50:11;2.50;99.90
53876;DHT22;39789;53.216;5.624;2023-04-06T00:52:37;2.40;99.90
53876;DHT22;39789;53.216;5.624;2023-04-06T00:55:03;2.30;99.90
53876;DHT22;39789;53.216;5.624;2023-04-06T00:57:29;2.20;99.90
53876;DHT22;39789;53.216;5.624;2023-04-06T00:59:55;2.10;99.90
53876;DHT22;39789;53.216;5.624;2023-04-06T01:02:20;2.00;99.90
53876;DHT22;39789;53.216;5.624;2023-04-06T01:04:46;2.00;99.90
53876;DHT22;39789;53.216;5.624;2023-04-06T01:07:11;2.00;99.90
53876;DHT22;39789;53.216;5.624;2023-04-06T01:09:37;2.00;99.90
53876;DHT22;39789;53.216;5.624;2023-04-06T01:12:03;2.10;99.90
53876;DHT22;39789;53.216;5.624;2023-04-06T01:14:28;2.10;99.90
53876;DHT22;39789;53.216;5.624;2023-04-06T01:16:57;2.20;99.90
53876;DHT22;39789;53.216;5.624;2023-04-06T01:19:23;2.20;99.90
53876;DHT22;39789;53.216;5.624;2023-04-06T01:21:49;2.20;99.90
53876;DHT22;39789;53.216;5.624;2023-04-06T01:24:16;2.10;99.90
53876;DHT22;39789;53.216;5.624;2023-04-06T01:26:42;2.30;99.90
53876;DHT22;39789;53.216;5.624;2023-04-06T01:29:07;2.30;99.90
53876;DHT22;39789;53.216;5.624;2023-04-06T01:31:33;2.30;99.90
53876;DHT22;39789;53.216;5.624;2023-04-06T01:33:59;2.20;99.90
53876;DHT22;39789;53.216;5.624;2023-04-06T01:36:24;2.30;99.90
53876;DHT22;39789;53.216;5.624;2023-04-06T01:38:50;2.20;99.90
53876;DHT22;39789;53.216;5.624;2023-04-06T01:41:16;2.20;99.90
53876;DHT22;39789;53.216;5.624;2023-04-06T01:43:41;2.20;99.90
53876;DHT22;39789;53.216;5.624;2023-04-06T01:46:07;2.20;99.90
53876;DHT22;39789;53.216;5.624;2023-04-06T01:48:32;2.20;99.90
53876;DHT22;39789;53.216;5.624;2023-04-06T01:50:58;2.10;99.90
53876;DHT22;39789;53.216;5.624;2023-04-06T01:53:23;2.10;99.90
53876;DHT22;39789;53.216;5.624;2023-04-06T01:55:49;1.90;99.90
53876;DHT22;39789;53.216;5.624;2023-04-06T01:58:15;1.80;99.90
53876;DHT22;39789;53.216;5.624;2023-04-06T02:00:40;1.70;99.90
53876;DHT22;39789;53.216;5.624;2023-04-06T02:03:06;1.60;99.90
53876;DHT22;39789;53.216;5.624;2023-04-06T02:05:32;1.50;99.90
53876;DHT22;39789;53.216;5.624;2023-04-06T02:08:07;1.50;99.90
53876;DHT22;39789;53.216;5.624;2023-04-06T02:10:35;2.20;99.90
53876;DHT22;39789;53.216;5.624;2023-04-06T02:13:01;1.40;99.90
53876;DHT22;39789;53.216;5.624;2023-04-06T02:15:27;1.40;99.90
53876;DHT22;39789;53.216;5.624;2023-04-06T02:17:53;1.40;99.90
53876;DHT22;39789;53.216;5.624;2023-04-06T02:20:19;1.30;99.90
53876;DHT22;39789;53.216;5.624;2023-04-06T02:22:45;1.30;99.90
53876;DHT22;39789;53.216;5.624;2023-04-06T02:25:10;1.30;99.90
53876;DHT22;39789;53.216;5.624;2023-04-06T02:27:36;1.20;99.90
53876;DHT22;39789;53.216;5.624;2023-04-06T02:30:02;1.30;99.90
53876;DHT22;39789;53.216;5.624;2023-04-06T02:32:28;1.40;99.90
53876;DHT22;39789;53.216;5.624;2023-04-06T02:34:54;1.40;99.90
53876;DHT22;39789;53.216;5.624;2023-04-06T02:37:19;1.60;99.90
53876;DHT22;39789;53.216;5.624;2023-04-06T02:39:45;1.40;99.90
53876;DHT22;39789;53.216;5.624;2023-04-06T02:42:11;1.40;99.90
53876;DHT22;39789;53.216;5.624;2023-04-06T02:44:36;1.40;99.90
53876;DHT22;39789;53.216;5.624;2023-04-06T02:47:02;1.40;99.90
53876;DHT22;39789;53.216;5.624;2023-04-06T02:49:27;1.40;99.90
53876;DHT22;39789;53.216;5.624;2023-04-06T02:51:53;1.40;99.90
53876;DHT22;39789;53.216;5.624;2023-04-06T02:54:19;1.30;99.90
53876;DHT22;39789;53.216;5.624;2023-04-06T02:56:44;1.30;99.90
53876;DHT22;39789;53.216;5.624;2023-04-06T02:59:10;1.30;99.90
53876;DHT22;39789;53.216;5.624;2023-04-06T03:01:36;1.30;99.90
53876;DHT22;39789;53.216;5.624;2023-04-06T03:04:02;1.60;99.90
53876;DHT22;39789;53.216;5.624;2023-04-06T03:06:27;1.40;99.90
53876;DHT22;39789;53.216;5.624;2023-04-06T03:08:53;1.50;99.90
53876;DHT22;39789;53.216;5.624;2023-04-06T03:11:18;1.60;99.90
53876;DHT22;39789;53.216;5.624;2023-04-06T03:13:44;1.60;99.90
53876;DHT22;39789;53.216;5.624;2023-04-06T03:16:10;1.70;99.90
53876;DHT22;39789;53.216;5.624;2023-04-06T03:18:35;1.70;99.90
53876;DHT22;39789;53.216;5.624;2023-04-06T03:21:01;1.80;99.90
53876;DHT22;39789;53.216;5.624;2023-04-06T03:23:27;1.70;99.90
53876;DHT22;39789;53.216;5.624;2023-04-06T03:25:52;1.80;99.90
53876;DHT22;39789;53.216;5.624;2023-04-06T03:28:18;2.40;99.90
53876;DHT22;39789;53.216;5.624;2023-04-06T03:30:46;2.40;99.90
53876;DHT22;39789;53.216;5.624;2023-04-06T03:33:12;1.80;99.90
53876;DHT22;39789;53.216;5.624;2023-04-06T03:35:38;1.70;99.90
53876;DHT22;39789;53.216;5.624;2023-04-06T03:38:04;1.60;99.90
53876;DHT22;39789;53.216;5.624;2023-04-06T03:40:33;1.60;99.90
53876;DHT22;39789;53.216;5.624;2023-04-06T03:42:59;1.50;99.90
53876;DHT22;39789;53.216;5.624;2023-04-06T03:45:24;1.50;99.90
53876;DHT22;39789;53.216;5.624;2023-04-06T03:47:50;1.50;99.90
53876;DHT22;39789;53.216;5.624;2023-04-06T03:50:15;1.50;99.90
53876;DHT22;39789;53.216;5.624;2023-04-06T03:52:41;1.50;99.90
53876;DHT22;39789;53.216;5.624;2023-04-06T03:55:07;2.40;99.90
53876;DHT22;39789;53.216;5.624;2023-04-06T03:57:33;1.50;99.90
53876;DHT22;39789;53.216;5.624;2023-04-06T03:59:58;1.80;99.90
53876;DHT22;39789;53.216;5.624;2023-04-06T04:02:25;1.50;99.90
53876;DHT22;39789;53.216;5.624;2023-04-06T04:04:50;1.50;99.90
53876;DHT22;39789;53.216;5.624;2023-04-06T04:07:16;1.50;99.90
53876;DHT22;39789;53.216;5.624;2023-04-06T04:09:41;1.50;99.90
53876;DHT22;39789;53.216;5.624;2023-04-06T04:12:07;1.50;99.90
53876;DHT22;39789;53.216;5.624;2023-04-06T04:14:32;1.70;99.90
53876;DHT22;39789;53.216;5.624;2023-04-06T04:16:59;1.50;99.90
53876;DHT22;39789;53.216;5.624;2023-04-06T04:19:24;1.70;99.90
53876;DHT22;39789;53.216;5.624;2023-04-06T04:21:50;1.60;99.90
53876;DHT22;39789;53.216;5.624;2023-04-06T04:24:15;1.50;99.90
53876;DHT22;39789;53.216;5.624;2023-04-06T04:26:41;1.50;99.90
53876;DHT22;39789;53.216;5.624;2023-04-06T04:29:07;1.60;99.90
53876;DHT22;39789;53.216;5.624;2023-04-06T04:31:32;1.60;99.90
53876;DHT22;39789;53.216;5.624;2023-04-06T04:33:59;1.60;99.90
53876;DHT22;39789;53.216;5.624;2023-04-06T04:36:25;1.70;99.90
53876;DHT22;39789;53.216;5.624;2023-04-06T04:38:52;1.60;99.90
53876;DHT22;39789;53.216;5.624;2023-04-06T04:41:17;1.60;99.90
53876;DHT22;39789;53.216;5.624;2023-04-06T04:43:43;1.70;99.90
53876;DHT22;39789;53.216;5.624;2023-04-06T04:46:09;1.80;99.90
53876;DHT22;39789;53.216;5.624;2023-04-06T04:48:35;1.80;99.90
53876;DHT22;39789;53.216;5.624;2023-04-06T04:51:01;1.70;99.90
53876;DHT22;39789;53.216;5.624;2023-04-06T04:53:26;1.70;99.90
53876;DHT22;39789;53.216;5.624;2023-04-06T04:55:52;1.70;99.90
53876;DHT22;39789;53.216;5.624;2023-04-06T04:58:17;1.60;99.90
53876;DHT22;39789;53.216;5.624;2023-04-06T05:00:45;1.70;99.90
53876;DHT22;39789;53.216;5.624;2023-04-06T05:03:23;1.80;99.90
53876;DHT22;39789;53.216;5.624;2023-04-06T05:05:49;1.80;99.90
53876;DHT22;39789;53.216;5.624;2023-04-06T05:08:15;2.60;99.90
53876;DHT22;39789;53.216;5.624;2023-04-06T05:10:41;1.90;99.90
53876;DHT22;39789;53.216;5.624;2023-04-06T05:13:06;1.90;99.90
53876;DHT22;39789;53.216;5.624;2023-04-06T05:15:32;2.80;99.90
53876;DHT22;39789;53.216;5.624;2023-04-06T05:18:00;2.00;99.90
53876;DHT22;39789;53.216;5.624;2023-04-06T05:20:26;2.00;99.90
53876;DHT22;39789;53.216;5.624;2023-04-06T05:22:53;2.20;99.90
53876;DHT22;39789;53.216;5.624;2023-04-06T05:25:19;2.30;99.90
53876;DHT22;39789;53.216;5.624;2023-04-06T05:27:44;2.40;99.90
53876;DHT22;39789;53.216;5.624;2023-04-06T05:30:10;2.60;99.90
53876;DHT22;39789;53.216;5.624;2023-04-06T05:32:36;2.80;99.90
53876;DHT22;39789;53.216;5.624;2023-04-06T05:35:01;3.00;99.90
53876;DHT22;39789;53.216;5.624;2023-04-06T05:37:27;3.10;99.90
53876;DHT22;39789;53.216;5.624;2023-04-06T05:39:52;3.20;99.90
53876;DHT22;39789;53.216;5.624;2023-04-06T05:42:18;3.20;99.90
53876;DHT22;39789;53.216;5.624;2023-04-06T05:44:43;3.30;99.90
53876;DHT22;39789;53.216;5.624;2023-04-06T05:47:09;3.50;99.90
53876;DHT22;39789;53.216;5.624;2023-04-06T05:49:35;3.70;99.90
53876;DHT22;39789;53.216;5.624;2023-04-06T05:52:01;3.80;99.90
53876;DHT22;39789;53.216;5.624;2023-04-06T05:54:26;3.90;99.90
53876;DHT22;39789;53.216;5.624;2023-04-06T05:56:52;4.10;99.90
53876;DHT22;39789;53.216;5.624;2023-04-06T05:59:18;4.30;99.90
53876;DHT22;39789;53.216;5.624;2023-04-06T06:01:43;4.40;99.90
53876;DHT22;39789;53.216;5.624;2023-04-06T06:04:09;4.50;99.90
53876;DHT22;39789;53.216;5.624;2023-04-06T06:06:34;4.60;99.90
53876;DHT22;39789;53.216;5.624;2023-04-06T06:09:01;4.70;99.90
53876;DHT22;39789;53.216;5.624;2023-04-06T06:11:29;4.60;99.90
53876;DHT22;39789;53.216;5.624;2023-04-06T06:13:54;4.60;99.90
53876;DHT22;39789;53.216;5.624;2023-04-06T06:16:23;4.70;99.90
53876;DHT22;39789;53.216;5.624;2023-04-06T06:18:48;4.90;99.90
53876;DHT22;39789;53.216;5.624;2023-04-06T06:21:14;5.00;99.90
53876;DHT22;39789;53.216;5.624;2023-04-06T06:23:42;5.00;99.90
53876;DHT22;39789;53.216;5.624;2023-04-06T06:26:07;5.00;99.90
53876;DHT22;39789;53.216;5.624;2023-04-06T06:28:33;4.60;99.90
53876;DHT22;39789;53.216;5.624;2023-04-06T06:30:58;5.00;99.90
53876;DHT22;39789;53.216;5.624;2023-04-06T06:33:24;5.10;99.90
53876;DHT22;39789;53.216;5.624;2023-04-06T06:35:51;5.10;99.90
53876;DHT22;39789;53.216;5.624;2023-04-06T06:38:17;5.20;99.90
53876;DHT22;39789;53.216;5.624;2023-04-06T06:40:43;5.40;99.90
53876;DHT22;39789;53.216;5.624;2023-04-06T06:43:08;5.60;99.90
53876;DHT22;39789;53.216;5.624;2023-04-06T06:45:34;5.90;99.90
53876;DHT22;39789;53.216;5.624;2023-04-06T06:48:00;6.10;99.90
53876;DHT22;39789;53.216;5.624;2023-04-06T06:50:25;6.30;99.90
53876;DHT22;39789;53.216;5.624;2023-04-06T06:52:51;6.30;99.90
53876;DHT22;39789;53.216;5.624;2023-04-06T06:55:16;6.10;99.90
53876;DHT22;39789;53.216;5.624;2023-04-06T06:57:44;6.00;99.90
53876;DHT22;39789;53.216;5.624;2023-04-06T07:00:11;5.90;99.90
53876;DHT22;39789;53.216;5.624;2023-04-06T07:02:38;5.80;99.90
53876;DHT22;39789;53.216;5.624;2023-04-06T07:05:07;5.80;99.90
53876;DHT22;39789;53.216;5.624;2023-04-06T07:07:33;5.90;99.90
53876;DHT22;39789;53.216;5.624;2023-04-06T07:09:59;5.90;99.90
53876;DHT22;39789;53.216;5.624;2023-04-06T07:12:25;5.90;99.90
53876;DHT22;39789;53.216;5.624;2023-04-06T07:14:51;6.00;99.90
53876;DHT22;39789;53.216;5.624;2023-04-06T07:17:16;6.00;99.90
53876;DHT22;39789;53.216;5.624;2023-04-06T07:19:45;6.00;99.90
53876;DHT22;39789;53.216;5.624;2023-04-06T07:22:11;6.10;99.90
53876;DHT22;39789;53.216;5.624;2023-04-06T07:24:37;6.10;99.90
53876;DHT22;39789;53.216;5.624;2023-04-06T07:27:02;6.30;99.90
53876;DHT22;39789;53.216;5.624;2023-04-06T07:29:28;6.60;99.90
53876;DHT22;39789;53.216;5.624;2023-04-06T07:31:54;6.90;99.90
53876;DHT22;39789;53.216;5.624;2023-04-06T07:34:20;6.90;99.90
53876;DHT22;39789;53.216;5.624;2023-04-06T07:36:46;6.80;99.90
53876;DHT22;39789;53.216;5.624;2023-04-06T07:39:12;6.80;99.90
53876;DHT22;39789;53.216;5.624;2023-04-06T07:41:37;7.00;99.90
53876;DHT22;39789;53.216;5.624;2023-04-06T07:44:03;7.50;99.90
53876;DHT22;39789;53.216;5.624;2023-04-06T07:46:33;8.30;99.90
53876;DHT22;39789;53.216;5.624;2023-04-06T07:49:00;8.80;99.90
53876;DHT22;39789;53.216;5.624;2023-04-06T07:51:29;9.20;99.90
53876;DHT22;39789;53.216;5.624;2023-04-06T07:53:54;9.50;99.90
53876;DHT22;39789;53.216;5.624;2023-04-06T07:56:20;9.70;99.90
53876;DHT22;39789;53.216;5.624;2023-04-06T07:58:49;9.60;99.90
53876;DHT22;39789;53.216;5.624;2023-04-06T08:01:15;9.40;99.90
53876;DHT22;39789;53.216;5.624;2023-04-06T08:03:41;9.20;99.90
53876;DHT22;39789;53.216;5.624;2023-04-06T08:06:06;9.10;99.90
53876;DHT22;39789;53.216;5.624;2023-04-06T08:08:32;9.60;99.90
53876;DHT22;39789;53.216;5.624;2023-04-06T08:10:57;9.40;99.90
53876;DHT22;39789;53.216;5.624;2023-04-06T08:13:23;9.40;99.90
53876;DHT22;39789;53.216;5.624;2023-04-06T08:15:48;9.30;99.90
53876;DHT22;39789;53.216;5.624;2023-04-06T08:18:14;9.30;99.90
53876;DHT22;39789;53.216;5.624;2023-04-06T08:20:40;9.20;99.90
53876;DHT22;39789;53.216;5.624;2023-04-06T08:23:06;9.20;99.90
53876;DHT22;39789;53.216;5.624;2023-04-06T08:25:36;9.10;99.90
53876;DHT22;39789;53.216;5.624;2023-04-06T08:28:02;9.10;99.90
53876;DHT22;39789;53.216;5.624;2023-04-06T08:30:28;9.00;99.90
53876;DHT22;39789;53.216;5.624;2023-04-06T08:32:54;9.00;99.90
53876;DHT22;39789;53.216;5.624;2023-04-06T08:35:20;9.10;99.90
53876;DHT22;39789;53.216;5.624;2023-04-06T08:37:45;9.20;99.90
53876;DHT22;39789;53.216;5.624;2023-04-06T08:40:12;9.30;99.90
53876;DHT22;39789;53.216;5.624;2023-04-06T08:42:40;9.40;99.90
53876;DHT22;39789;53.216;5.624;2023-04-06T08:45:09;9.50;99.90
53876;DHT22;39789;53.216;5.624;2023-04-06T08:47:39;9.60;99.90
53876;DHT22;39789;53.216;5.624;2023-04-06T08:50:06;9.60;99.90
53876;DHT22;39789;53.216;5.624;2023-04-06T08:52:33;9.70;99.90
53876;DHT22;39789;53.216;5.624;2023-04-06T08:55:01;9.60;99.90
53876;DHT22;39789;53.216;5.624;2023-04-06T08:57:27;9.60;99.90
53876;DHT22;39789;53.216;5.624;2023-04-06T08:59:52;9.50;99.90
53876;DHT22;39789;53.216;5.624;2023-04-06T09:02:19;9.60;99.90
53876;DHT22;39789;53.216;5.624;2023-04-06T09:04:49;9.60;99.90
53876;DHT22;39789;53.216;5.624;2023-04-06T09:07:17;9.60;99.90
53876;DHT22;39789;53.216;5.624;2023-04-06T09:09:43;9.70;99.90
53876;DHT22;39789;53.216;5.624;2023-04-06T09:12:30;9.80;99.90
53876;DHT22;39789;53.216;5.624;2023-04-06T09:14:57;9.90;99.90
53876;DHT22;39789;53.216;5.624;2023-04-06T09:17:26;10.00;99.90
53876;DHT22;39789;53.216;5.624;2023-04-06T09:19:52;10.10;99.90
53876;DHT22;39789;53.216;5.624;2023-04-06T09:22:18;10.10;99.90
53876;DHT22;39789;53.216;5.624;2023-04-06T09:24:46;10.00;99.90
53876;DHT22;39789;53.216;5.624;2023-04-06T09:27:13;10.10;99.90
53876;DHT22;39789;53.216;5.624;2023-04-06T09:29:39;10.00;99.90
53876;DHT22;39789;53.216;5.624;2023-04-06T09:32:06;10.00;99.90
53876;DHT22;39789;53.216;5.624;2023-04-06T09:34:33;10.00;99.90
53876;DHT22;39789;53.216;5.624;2023-04-06T09:36:59;10.00;99.90
53876;DHT22;39789;53.216;5.624;2023-04-06T09:39:25;10.00;99.90
53876;DHT22;39789;53.216;5.624;2023-04-06T09:41:52;10.00;99.90
53876;DHT22;39789;53.216;5.624;2023-04-06T09:44:18;10.00;99.90
53876;DHT22;39789;53.216;5.624;2023-04-06T09:46:45;10.10;99.90
53876;DHT22;39789;53.216;5.624;2023-04-06T09:49:12;10.10;99.90
53876;DHT22;39789;53.216;5.624;2023-04-06T09:51:46;10.10;99.90
53876;DHT22;39789;53.216;5.624;2023-04-06T09:54:18;10.10;99.90
53876;DHT22;39789;53.216;5.624;2023-04-06T09:59:25;10.20;99.90
53876;DHT22;39789;53.216;5.624;2023-04-06T10:01:53;10.20;99.90
53876;DHT22;39789;53.216;5.624;2023-04-06T10:06:59;10.20;99.90
53876;DHT22;39789;53.216;5.624;2023-04-06T10:09:29;10.30;99.90
53876;DHT22;39789;53.216;5.624;2023-04-06T10:12:05;10.40;99.90
53876;DHT22;39789;53.216;5.624;2023-04-06T10:14:34;10.40;99.90
53876;DHT22;39789;53.216;5.624;2023-04-06T10:17:03;10.50;99.90
53876;DHT22;39789;53.216;5.624;2023-04-06T10:19:57;10.50;99.90
53876;DHT22;39789;53.216;5.624;2023-04-06T10:22:29;10.60;99.90
53876;DHT22;39789;53.216;5.624;2023-04-06T10:24:58;10.70;99.90
53876;DHT22;39789;53.216;5.624;2023-04-06T10:27:30;10.70;99.90
53876;DHT22;39789;53.216;5.624;2023-04-06T10:30:04;10.80;99.90
53876;DHT22;39789;53.216;5.624;2023-04-06T10:35:09;10.80;99.90
53876;DHT22;39789;53.216;5.624;2023-04-06T10:38:02;10.90;99.90
53876;DHT22;39789;53.216;5.624;2023-04-06T10:40:28;10.90;99.90
53876;DHT22;39789;53.216;5.624;2023-04-06T10:42:55;11.00;99.90
53876;DHT22;39789;53.216;5.624;2023-04-06T10:45:22;11.10;99.90
53876;DHT22;39789;53.216;5.624;2023-04-06T10:47:48;11.10;99.90
53876;DHT22;39789;53.216;5.624;2023-04-06T10:50:15;11.10;99.90
53876;DHT22;39789;53.216;5.624;2023-04-06T10:52:41;11.20;99.90
53876;DHT22;39789;53.216;5.624;2023-04-06T10:55:08;11.30;99.90
53876;DHT22;39789;53.216;5.624;2023-04-06T10:57:35;11.40;99.90
53876;DHT22;39789;53.216;5.624;2023-04-06T11:00:07;11.50;99.90
53876;DHT22;39789;53.216;5.624;2023-04-06T11:02:36;11.60;99.90
53876;DHT22;39789;53.216;5.624;2023-04-06T11:05:03;11.60;99.90
53876;DHT22;39789;53.216;5.624;2023-04-06T11:07:29;11.60;99.90
53876;DHT22;39789;53.216;5.624;2023-04-06T11:09:56;11.60;99.90
53876;DHT22;39789;53.216;5.624;2023-04-06T11:12:26;11.60;99.90
53876;DHT22;39789;53.216;5.624;2023-04-06T11:15:00;11.60;99.90
53876;DHT22;39789;53.216;5.624;2023-04-06T11:17:35;11.70;99.90
53876;DHT22;39789;53.216;5.624;2023-04-06T11:20:03;11.80;99.90
53876;DHT22;39789;53.216;5.624;2023-04-06T11:22:29;11.90;99.90
53876;DHT22;39789;53.216;5.624;2023-04-06T11:25:07;11.90;99.90
53876;DHT22;39789;53.216;5.624;2023-04-06T11:27:34;11.80;99.90
53876;DHT22;39789;53.216;5.624;2023-04-06T11:30:01;11.80;99.90
53876;DHT22;39789;53.216;5.624;2023-04-06T11:32:27;11.80;99.90
53876;DHT22;39789;53.216;5.624;2023-04-06T11:34:53;11.70;99.90
53876;DHT22;39789;53.216;5.624;2023-04-06T11:37:18;11.70;99.90
53876;DHT22;39789;53.216;5.624;2023-04-06T11:39:49;11.80;99.90
53876;DHT22;39789;53.216;5.624;2023-04-06T11:42:23;11.90;99.90
53876;DHT22;39789;53.216;5.624;2023-04-06T11:44:51;11.90;99.90
53876;DHT22;39789;53.216;5.624;2023-04-06T11:47:18;11.90;99.90
53876;DHT22;39789;53.216;5.624;2023-04-06T11:49:44;11.90;99.90
53876;DHT22;39789;53.216;5.624;2023-04-06T11:52:21;11.90;99.90
53876;DHT22;39789;53.216;5.624;2023-04-06T11:54:48;12.00;99.90
53876;DHT22;39789;53.216;5.624;2023-04-06T11:57:14;12.00;99.90
53876;DHT22;39789;53.216;5.624;2023-04-06T11:59:40;12.10;99.90
53876;DHT22;39789;53.216;5.624;2023-04-06T12:02:06;12.10;99.90
53876;DHT22;39789;53.216;5.624;2023-04-06T12:04:32;13.00;99.90
53876;DHT22;39789;53.216;5.624;2023-04-06T12:06:58;11.90;99.90
53876;DHT22;39789;53.216;5.624;2023-04-06T12:09:23;11.70;99.90
53876;DHT22;39789;53.216;5.624;2023-04-06T12:11:49;11.60;99.90
53876;DHT22;39789;53.216;5.624;2023-04-06T12:14:15;11.40;99.90
53876;DHT22;39789;53.216;5.624;2023-04-06T12:16:41;11.30;99.90
53876;DHT22;39789;53.216;5.624;2023-04-06T12:19:07;11.30;99.90
53876;DHT22;39789;53.216;5.624;2023-04-06T12:21:34;11.20;99.90
53876;DHT22;39789;53.216;5.624;2023-04-06T12:24:02;11.20;99.90
53876;DHT22;39789;53.216;5.624;2023-04-06T12:26:29;11.20;99.90
53876;DHT22;39789;53.216;5.624;2023-04-06T12:28:55;11.00;99.90
53876;DHT22;39789;53.216;5.624;2023-04-06T12:31:22;10.90;99.90
53876;DHT22;39789;53.216;5.624;2023-04-06T12:33:51;10.90;99.90
53876;DHT22;39789;53.216;5.624;2023-04-06T12:36:19;10.80;99.90
53876;DHT22;39789;53.216;5.624;2023-04-06T12:38:47;10.80;99.90
53876;DHT22;39789;53.216;5.624;2023-04-06T12:41:13;10.80;99.90
53876;DHT22;39789;53.216;5.624;2023-04-06T12:43:42;10.60;99.90
53876;DHT22;39789;53.216;5.624;2023-04-06T12:46:08;10.50;99.90
53876;DHT22;39789;53.216;5.624;2023-04-06T12:48:34;10.40;99.90
53876;DHT22;39789;53.216;5.624;2023-04-06T12:51:03;10.30;99.90
53876;DHT22;39789;53.216;5.624;2023-04-06T12:53:29;10.20;99.90
53876;DHT22;39789;53.216;5.624;2023-04-06T12:55:55;10.00;99.90
53876;DHT22;39789;53.216;5.624;2023-04-06T12:58:22;9.90;99.90
53876;DHT22;39789;53.216;5.624;2023-04-06T13:00:49;9.90;99.90
53876;DHT22;39789;53.216;5.624;2023-04-06T13:03:16;9.90;99.90
53876;DHT22;39789;53.216;5.624;2023-04-06T13:05:45;9.90;99.90
53876;DHT22;39789;53.216;5.624;2023-04-06T13:08:12;9.90;99.90
53876;DHT22;39789;53.216;5.624;2023-04-06T13:10:37;9.80;99.90
53876;DHT22;39789;53.216;5.624;2023-04-06T13:13:03;9.70;99.90
53876;DHT22;39789;53.216;5.624;2023-04-06T13:15:29;9.70;99.90
53876;DHT22;39789;53.216;5.624;2023-04-06T13:17:55;9.70;99.90
53876;DHT22;39789;53.216;5.624;2023-04-06T13:20:20;9.70;99.90
53876;DHT22;39789;53.216;5.624;2023-04-06T13:22:46;9.70;99.90
53876;DHT22;39789;53.216;5.624;2023-04-06T13:25:11;9.70;99.90
53876;DHT22;39789;53.216;5.624;2023-04-06T13:27:37;9.60;99.90
53876;DHT22;39789;53.216;5.624;2023-04-06T13:30:03;9.50;99.90
53876;DHT22;39789;53.216;5.624;2023-04-06T13:32:29;9.40;99.90
53876;DHT22;39789;53.216;5.624;2023-04-06T13:34:56;9.30;99.90
53876;DHT22;39789;53.216;5.624;2023-04-06T13:37:22;9.30;99.90
53876;DHT22;39789;53.216;5.624;2023-04-06T13:39:48;9.20;99.90
53876;DHT22;39789;53.216;5.624;2023-04-06T13:42:13;9.10;99.90
53876;DHT22;39789;53.216;5.624;2023-04-06T13:44:39;9.00;99.90
53876;DHT22;39789;53.216;5.624;2023-04-06T13:47:05;8.90;99.90
53876;DHT22;39789;53.216;5.624;2023-04-06T13:49:31;10.10;99.90
53876;DHT22;39789;53.216;5.624;2023-04-06T13:51:56;8.80;99.90
53876;DHT22;39789;53.216;5.624;2023-04-06T13:54:22;8.80;99.90
53876;DHT22;39789;53.216;5.624;2023-04-06T13:56:47;8.70;99.90
53876;DHT22;39789;53.216;5.624;2023-04-06T13:59:13;8.70;99.90
53876;DHT22;39789;53.216;5.624;2023-04-06T14:01:39;8.70;99.90
53876;DHT22;39789;53.216;5.624;2023-04-06T14:04:04;8.60;99.90
53876;DHT22;39789;53.216;5.624;2023-04-06T14:06:30;8.50;99.90
53876;DHT22;39789;53.216;5.624;2023-04-06T14:08:56;8.50;99.90
53876;DHT22;39789;53.216;5.624;2023-04-06T14:11:22;8.50;99.90
53876;DHT22;39789;53.216;5.624;2023-04-06T14:13:48;8.40;99.90
53876;DHT22;39789;53.216;5.624;2023-04-06T14:16:13;8.40;99.90
53876;DHT22;39789;53.216;5.624;2023-04-06T14:18:39;8.30;99.90
53876;DHT22;39789;53.216;5.624;2023-04-06T14:21:05;8.20;99.90
53876;DHT22;39789;53.216;5.624;2023-04-06T14:23:31;8.20;99.90
53876;DHT22;39789;53.216;5.624;2023-04-06T14:26:01;8.10;99.90
53876;DHT22;39789;53.216;5.624;2023-04-06T14:28:28;8.10;99.90
53876;DHT22;39789;53.216;5.624;2023-04-06T14:30:54;8.10;99.90
53876;DHT22;39789;53.216;5.624;2023-04-06T14:33:20;8.10;99.90
53876;DHT22;39789;53.216;5.624;2023-04-06T14:35:45;8.10;99.90
53876;DHT22;39789;53.216;5.624;2023-04-06T14:38:11;8.10;99.90
53876;DHT22;39789;53.216;5.624;2023-04-06T14:40:36;8.00;99.90
53876;DHT22;39789;53.216;5.624;2023-04-06T14:43:03;8.00;99.90
53876;DHT22;39789;53.216;5.624;2023-04-06T14:45:29;8.00;99.90
53876;DHT22;39789;53.216;5.624;2023-04-06T14:47:54;8.00;99.90
53876;DHT22;39789;53.216;5.624;2023-04-06T14:50:20;8.00;99.90
53876;DHT22;39789;53.216;5.624;2023-04-06T14:52:46;8.10;99.90
53876;DHT22;39789;53.216;5.624;2023-04-06T14:55:12;8.00;99.90
53876;DHT22;39789;53.216;5.624;2023-04-06T14:57:38;8.00;99.90
53876;DHT22;39789;53.216;5.624;2023-04-06T15:00:03;8.00;99.90
53876;DHT22;39789;53.216;5.624;2023-04-06T15:02:29;8.00;99.90
53876;DHT22;39789;53.216;5.624;2023-04-06T15:04:57;8.00;99.90
53876;DHT22;39789;53.216;5.624;2023-04-06T15:07:22;8.00;99.90
53876;DHT22;39789;53.216;5.624;2023-04-06T15:09:48;9.20;99.90
53876;DHT22;39789;53.216;5.624;2023-04-06T15:12:13;8.10;99.90
53876;DHT22;39789;53.216;5.624;2023-04-06T15:14:39;8.10;99.90
53876;DHT22;39789;53.216;5.624;2023-04-06T15:17:04;8.10;99.90
53876;DHT22;39789;53.216;5.624;2023-04-06T15:19:30;8.10;99.90
53876;DHT22;39789;53.216;5.624;2023-04-06T15:21:56;8.10;99.90
53876;DHT22;39789;53.216;5.624;2023-04-06T15:24:21;8.10;99.90
53876;DHT22;39789;53.216;5.624;2023-04-06T15:26:47;8.10;99.90
53876;DHT22;39789;53.216;5.624;2023-04-06T15:29:13;8.00;99.90
53876;DHT22;39789;53.216;5.624;2023-04-06T15:31:38;8.00;99.90
53876;DHT22;39789;53.216;5.624;2023-04-06T15:34:05;7.90;99.90
53876;DHT22;39789;53.216;5.624;2023-04-06T15:36:33;7.70;99.90
53876;DHT22;39789;53.216;5.624;2023-04-06T15:38:59;7.90;99.90
53876;DHT22;39789;53.216;5.624;2023-04-06T15:41:25;7.90;99.90
53876;DHT22;39789;53.216;5.624;2023-04-06T15:43:52;7.90;99.90
53876;DHT22;39789;53.216;5.624;2023-04-06T15:46:18;7.80;99.90